sensor_id;sensor_type;location;lat;lon;timestamp;P1;durP1;ratioP1;P2;durP2;ratioP2
73672;SDS011;61972;19.480;-99.240;2024-01-30T00:00:54;668.90;;;60.15;;
73672;SDS011;61972;19.480;-99.240;2024-01-30T00:03:20;730.63;;;69.63;;
73672;SDS011;61972;19.480;-99.240;2024-01-30T00:05:46;736.40;;;67.45;;
73672;SDS011;61972;19.480;-99.240;2024-01-30T00:08:12;724.80;;;66.28;;
73672;SDS011;61972;19.480;-99.240;2024-01-30T00:10:39;681.03;;;60.77;;
73672;SDS011;61972;19.480;-99.240;2024-01-30T00:15:50;652.17;;;57.63;;
73672;SDS011;61972;19.480;-99.240;2024-01-30T00:18:16;603.83;;;55.08;;
73672;SDS011;61972;19.480;-99.240;2024-01-30T00:20:44;590.22;;;56.15;;
73672;SDS011;61972;19.480;-99.240;2024-01-30T00:23:10;536.07;;;53.27;;
73672;SDS011;61972;19.480;-99.240;2024-01-30T00:25:36;504.73;;;48.97;;
73672;SDS011;61972;19.480;-99.240;2024-01-30T00:28:02;489.25;;;50.53;;
73672;SDS011;61972;19.480;-99.240;2024-01-30T00:30:29;444.58;;;46.10;;
73672;SDS011;61972;19.480;-99.240;2024-01-30T00:32:57;451.65;;;48.13;;
73672;SDS011;61972;19.480;-99.240;2024-01-30T00:35:23;386.27;;;39.80;;
73672;SDS011;61972;19.480;-99.240;2024-01-30T00:37:50;382.08;;;41.55;;
73672;SDS011;61972;19.480;-99.240;2024-01-30T00:40:16;357.50;;;40.22;;
73672;SDS011;61972;19.480;-99.240;2024-01-30T00:42:43;315.38;;;39.00;;
73672;SDS011;61972;19.480;-99.240;2024-01-30T00:45:13;298.38;;;36.33;;
73672;SDS011;61972;19.480;-99.240;2024-01-30T00:47:40;283.17;;;34.77;;
73672;SDS011;61972;19.480;-99.240;2024-01-30T00:50:06;250.30;;;32.55;;
73672;SDS011;61972;19.480;-99.240;2024-01-30T00:52:33;252.93;;;32.75;;
73672;SDS011;61972;19.480;-99.240;2024-01-30T00:54:59;230.65;;;27.63;;
73672;SDS011;61972;19.480;-99.240;2024-01-30T00:57:26;200.27;;;28.55;;
73672;SDS011;61972;19.480;-99.240;2024-01-30T00:59:52;190.37;;;25.73;;
73672;SDS011;61972;19.480;-99.240;2024-01-30T01:02:18;179.52;;;27.05;;
73672;SDS011;61972;19.480;-99.240;2024-01-30T01:04:44;163.55;;;24.15;;
73672;SDS011;61972;19.480;-99.240;2024-01-30T01:07:11;148.25;;;23.75;;
73672;SDS011;61972;19.480;-99.240;2024-01-30T01:09:37;151.10;;;24.70;;
73672;SDS011;61972;19.480;-99.240;2024-01-30T01:12:03;146.10;;;23.50;;
73672;SDS011;61972;19.480;-99.240;2024-01-30T01:14:30;136.07;;;22.67;;
73672;SDS011;61972;19.480;-99.240;2024-01-30T01:16:56;121.53;;;21.75;;
73672;SDS011;61972;19.480;-99.240;2024-01-30T01:19:30;121.55;;;20.38;;
73672;SDS011;61972;19.480;-99.240;2024-01-30T01:21:59;126.28;;;21.65;;
73672;SDS011;61972;19.480;-99.240;2024-01-30T01:24:28;115.73;;;19.23;;
73672;SDS011;61972;19.480;-99.240;2024-01-30T01:27:04;108.00;;;17.95;;
73672;SDS011;61972;19.480;-99.240;2024-01-30T01:29:34;109.57;;;18.05;;
73672;SDS011;61972;19.480;-99.240;2024-01-30T01:32:03;91.20;;;17.65;;
73672;SDS011;61972;19.480;-99.240;2024-01-30T01:34:29;87.53;;;17.13;;
73672;SDS011;61972;19.480;-99.240;2024-01-30T01:36:55;84.13;;;16.43;;
73672;SDS011;61972;19.480;-99.240;2024-01-30T01:39:22;81.80;;;15.77;;
73672;SDS011;61972;19.480;-99.240;2024-01-30T01:41:49;76.43;;;14.70;;
73672;SDS011;61972;19.480;-99.240;2024-01-30T01:44:15;72.60;;;15.25;;
73672;SDS011;61972;19.480;-99.240;2024-01-30T01:46:41;69.75;;;14.43;;
73672;SDS011;61972;19.480;-99.240;2024-01-30T01:49:07;70.07;;;13.90;;
73672;SDS011;61972;19.480;-99.240;2024-01-30T01:51:35;60.83;;;12.70;;
73672;SDS011;61972;19.480;-99.240;2024-01-30T01:54:02;63.30;;;15.02;;
73672;SDS011;61972;19.480;-99.240;2024-01-30T01:56:29;49.92;;;12.43;;
73672;SDS011;61972;19.480;-99.240;2024-01-30T01:58:59;61.28;;;12.93;;
73672;SDS011;61972;19.480;-99.240;2024-01-30T02:01:30;55.47;;;13.37;;
73672;SDS011;61972;19.480;-99.240;2024-01-30T02:03:58;59.55;;;13.40;;
73672;SDS011;61972;19.480;-99.240;2024-01-30T02:06:25;50.53;;;12.15;;
73672;SDS011;61972;19.480;-99.240;2024-01-30T02:08:52;46.70;;;11.50;;
73672;SDS011;61972;19.480;-99.240;2024-01-30T02:11:19;42.85;;;12.35;;
73672;SDS011;61972;19.480;-99.240;2024-01-30T02:13:46;35.10;;;11.50;;
73672;SDS011;61972;19.480;-99.240;2024-01-30T02:16:12;40.03;;;11.27;;
73672;SDS011;61972;19.480;-99.240;2024-01-30T02:18:38;30.48;;;10.95;;
73672;SDS011;61972;19.480;-99.240;2024-01-30T02:21:09;30.70;;;11.00;;
73672;SDS011;61972;19.480;-99.240;2024-01-30T02:23:35;39.67;;;11.60;;
73672;SDS011;61972;19.480;-99.240;2024-01-30T02:29:10;37.92;;;11.68;;
73672;SDS011;61972;19.480;-99.240;2024-01-30T02:31:36;36.10;;;11.55;;
73672;SDS011;61972;19.480;-99.240;2024-01-30T02:34:02;34.28;;;11.30;;
73672;SDS011;61972;19.480;-99.240;2024-01-30T02:36:28;35.17;;;12.20;;
73672;SDS011;61972;19.480;-99.240;2024-01-30T02:38:55;36.87;;;12.70;;
73672;SDS011;61972;19.480;-99.240;2024-01-30T02:41:35;33.95;;;11.95;;
73672;SDS011;61972;19.480;-99.240;2024-01-30T02:44:04;31.75;;;11.98;;
73672;SDS011;61972;19.480;-99.240;2024-01-30T02:46:30;29.10;;;11.93;;
73672;SDS011;61972;19.480;-99.240;2024-01-30T02:48:56;25.40;;;11.80;;
73672;SDS011;61972;19.480;-99.240;2024-01-30T02:51:22;34.53;;;12.03;;
73672;SDS011;61972;19.480;-99.240;2024-01-30T02:53:48;28.25;;;11.05;;
73672;SDS011;61972;19.480;-99.240;2024-01-30T02:56:15;23.58;;;10.80;;
73672;SDS011;61972;19.480;-99.240;2024-01-30T02:58:41;22.08;;;10.60;;
73672;SDS011;61972;19.480;-99.240;2024-01-30T03:01:07;25.13;;;10.40;;
73672;SDS011;61972;19.480;-99.240;2024-01-30T03:03:34;25.17;;;10.13;;
73672;SDS011;61972;19.480;-99.240;2024-01-30T03:06:01;22.27;;;10.75;;
73672;SDS011;61972;19.480;-99.240;2024-01-30T03:08:28;20.80;;;10.00;;
73672;SDS011;61972;19.480;-99.240;2024-01-30T03:10:54;22.88;;;9.60;;
73672;SDS011;61972;19.480;-99.240;2024-01-30T03:13:21;20.00;;;9.15;;
73672;SDS011;61972;19.480;-99.240;2024-01-30T03:15:48;19.73;;;9.57;;
73672;SDS011;61972;19.480;-99.240;2024-01-30T03:18:15;19.45;;;8.48;;
73672;SDS011;61972;19.480;-99.240;2024-01-30T03:20:41;18.77;;;8.27;;
73672;SDS011;61972;19.480;-99.240;2024-01-30T03:23:07;15.35;;;8.20;;
73672;SDS011;61972;19.480;-99.240;2024-01-30T03:25:33;17.42;;;7.72;;
73672;SDS011;61972;19.480;-99.240;2024-01-30T03:27:59;16.03;;;7.60;;
73672;SDS011;61972;19.480;-99.240;2024-01-30T03:30:25;16.17;;;7.70;;
73672;SDS011;61972;19.480;-99.240;2024-01-30T03:32:51;15.75;;;7.50;;
73672;SDS011;61972;19.480;-99.240;2024-01-30T03:35:18;14.30;;;7.28;;
73672;SDS011;61972;19.480;-99.240;2024-01-30T03:37:44;15.18;;;6.78;;
73672;SDS011;61972;19.480;-99.240;2024-01-30T03:40:11;11.73;;;6.90;;
73672;SDS011;61972;19.480;-99.240;2024-01-30T03:42:40;18.42;;;7.22;;
73672;SDS011;61972;19.480;-99.240;2024-01-30T03:45:06;14.18;;;7.75;;
73672;SDS011;61972;19.480;-99.240;2024-01-30T03:47:33;13.35;;;7.53;;
73672;SDS011;61972;19.480;-99.240;2024-01-30T03:49:59;19.48;;;8.20;;
73672;SDS011;61972;19.480;-99.240;2024-01-30T03:52:25;18.40;;;7.77;;
73672;SDS011;61972;19.480;-99.240;2024-01-30T03:54:51;21.58;;;9.50;;
73672;SDS011;61972;19.480;-99.240;2024-01-30T03:57:17;17.77;;;8.20;;
73672;SDS011;61972;19.480;-99.240;2024-01-30T03:59:47;22.42;;;9.80;;
73672;SDS011;61972;19.480;-99.240;2024-01-30T04:02:13;16.92;;;8.85;;
73672;SDS011;61972;19.480;-99.240;2024-01-30T04:04:39;19.47;;;9.87;;
73672;SDS011;61972;19.480;-99.240;2024-01-30T04:07:05;26.33;;;9.85;;
73672;SDS011;61972;19.480;-99.240;2024-01-30T04:09:32;28.38;;;10.95;;
73672;SDS011;61972;19.480;-99.240;2024-01-30T04:12:20;41.72;;;12.13;;
73672;SDS011;61972;19.480;-99.240;2024-01-30T04:14:46;46.85;;;14.13;;
73672;SDS011;61972;19.480;-99.240;2024-01-30T04:17:13;48.73;;;12.93;;
73672;SDS011;61972;19.480;-99.240;2024-01-30T04:19:39;43.75;;;12.25;;
73672;SDS011;61972;19.480;-99.240;2024-01-30T04:22:06;44.60;;;13.32;;
73672;SDS011;61972;19.480;-99.240;2024-01-30T04:24:32;46.25;;;13.55;;
73672;SDS011;61972;19.480;-99.240;2024-01-30T04:26:58;52.25;;;14.00;;
73672;SDS011;61972;19.480;-99.240;2024-01-30T04:29:24;44.33;;;13.13;;
73672;SDS011;61972;19.480;-99.240;2024-01-30T04:31:50;48.17;;;14.90;;
73672;SDS011;61972;19.480;-99.240;2024-01-30T04:34:16;44.42;;;13.63;;
73672;SDS011;61972;19.480;-99.240;2024-01-30T04:36:44;50.00;;;13.05;;
73672;SDS011;61972;19.480;-99.240;2024-01-30T04:39:12;45.17;;;13.70;;
73672;SDS011;61972;19.480;-99.240;2024-01-30T04:41:38;50.00;;;12.93;;
73672;SDS011;61972;19.480;-99.240;2024-01-30T04:44:05;44.83;;;12.70;;
73672;SDS011;61972;19.480;-99.240;2024-01-30T04:46:31;33.08;;;12.00;;
73672;SDS011;61972;19.480;-99.240;2024-01-30T04:48:57;36.15;;;12.57;;
73672;SDS011;61972;19.480;-99.240;2024-01-30T04:51:26;43.50;;;12.20;;
73672;SDS011;61972;19.480;-99.240;2024-01-30T04:53:56;47.43;;;11.53;;
73672;SDS011;61972;19.480;-99.240;2024-01-30T04:56:22;34.85;;;11.68;;
73672;SDS011;61972;19.480;-99.240;2024-01-30T04:58:48;34.30;;;11.30;;
73672;SDS011;61972;19.480;-99.240;2024-01-30T05:01:15;35.70;;;11.27;;
73672;SDS011;61972;19.480;-99.240;2024-01-30T05:03:41;37.97;;;12.18;;
73672;SDS011;61972;19.480;-99.240;2024-01-30T05:06:07;35.67;;;11.07;;
73672;SDS011;61972;19.480;-99.240;2024-01-30T05:08:34;37.47;;;10.75;;
73672;SDS011;61972;19.480;-99.240;2024-01-30T05:11:03;35.47;;;10.68;;
73672;SDS011;61972;19.480;-99.240;2024-01-30T05:13:32;39.95;;;10.25;;
73672;SDS011;61972;19.480;-99.240;2024-01-30T05:15:58;32.58;;;10.02;;
73672;SDS011;61972;19.480;-99.240;2024-01-30T05:18:24;29.00;;;9.63;;
73672;SDS011;61972;19.480;-99.240;2024-01-30T05:20:56;34.83;;;9.02;;
73672;SDS011;61972;19.480;-99.240;2024-01-30T05:23:23;34.47;;;9.18;;
73672;SDS011;61972;19.480;-99.240;2024-01-30T05:25:49;26.00;;;8.32;;
73672;SDS011;61972;19.480;-99.240;2024-01-30T05:28:15;32.55;;;8.70;;
73672;SDS011;61972;19.480;-99.240;2024-01-30T05:30:41;44.40;;;8.70;;
73672;SDS011;61972;19.480;-99.240;2024-01-30T05:33:07;30.38;;;8.10;;
73672;SDS011;61972;19.480;-99.240;2024-01-30T05:35:33;34.05;;;8.73;;
73672;SDS011;61972;19.480;-99.240;2024-01-30T05:37:59;31.45;;;8.90;;
73672;SDS011;61972;19.480;-99.240;2024-01-30T05:40:25;25.70;;;8.82;;
73672;SDS011;61972;19.480;-99.240;2024-01-30T05:42:52;29.23;;;7.93;;
73672;SDS011;61972;19.480;-99.240;2024-01-30T05:45:18;28.65;;;8.55;;
73672;SDS011;61972;19.480;-99.240;2024-01-30T05:47:45;27.00;;;7.63;;
73672;SDS011;61972;19.480;-99.240;2024-01-30T05:50:11;28.05;;;7.63;;
73672;SDS011;61972;19.480;-99.240;2024-01-30T05:52:37;21.08;;;7.43;;
73672;SDS011;61972;19.480;-99.240;2024-01-30T05:55:03;26.73;;;7.60;;
73672;SDS011;61972;19.480;-99.240;2024-01-30T05:57:30;26.98;;;7.85;;
73672;SDS011;61972;19.480;-99.240;2024-01-30T05:59:56;32.33;;;8.05;;
73672;SDS011;61972;19.480;-99.240;2024-01-30T06:02:23;20.55;;;8.15;;
73672;SDS011;61972;19.480;-99.240;2024-01-30T06:04:49;21.73;;;7.72;;
73672;SDS011;61972;19.480;-99.240;2024-01-30T06:07:15;24.83;;;7.60;;
73672;SDS011;61972;19.480;-99.240;2024-01-30T06:09:42;18.80;;;7.35;;
73672;SDS011;61972;19.480;-99.240;2024-01-30T06:12:09;19.23;;;7.32;;
73672;SDS011;61972;19.480;-99.240;2024-01-30T06:14:37;21.83;;;7.60;;
73672;SDS011;61972;19.480;-99.240;2024-01-30T06:17:03;17.70;;;7.13;;
73672;SDS011;61972;19.480;-99.240;2024-01-30T06:19:30;16.90;;;6.87;;
73672;SDS011;61972;19.480;-99.240;2024-01-30T06:21:56;15.70;;;6.68;;
73672;SDS011;61972;19.480;-99.240;2024-01-30T06:24:23;18.27;;;7.28;;
73672;SDS011;61972;19.480;-99.240;2024-01-30T06:26:49;15.32;;;6.70;;
73672;SDS011;61972;19.480;-99.240;2024-01-30T06:29:15;19.40;;;7.30;;
73672;SDS011;61972;19.480;-99.240;2024-01-30T06:31:41;16.33;;;7.17;;
73672;SDS011;61972;19.480;-99.240;2024-01-30T06:34:08;17.90;;;6.78;;
73672;SDS011;61972;19.480;-99.240;2024-01-30T06:36:35;15.63;;;6.32;;
73672;SDS011;61972;19.480;-99.240;2024-01-30T06:39:02;18.70;;;6.82;;
73672;SDS011;61972;19.480;-99.240;2024-01-30T06:41:28;12.77;;;5.82;;
73672;SDS011;61972;19.480;-99.240;2024-01-30T06:43:55;12.00;;;6.00;;
73672;SDS011;61972;19.480;-99.240;2024-01-30T06:46:21;15.95;;;6.35;;
73672;SDS011;61972;19.480;-99.240;2024-01-30T06:48:47;12.98;;;6.13;;
73672;SDS011;61972;19.480;-99.240;2024-01-30T06:51:14;16.77;;;6.65;;
73672;SDS011;61972;19.480;-99.240;2024-01-30T06:53:40;14.35;;;6.00;;
73672;SDS011;61972;19.480;-99.240;2024-01-30T06:56:06;13.57;;;5.93;;
73672;SDS011;61972;19.480;-99.240;2024-01-30T06:58:33;13.95;;;6.50;;
73672;SDS011;61972;19.480;-99.240;2024-01-30T07:00:59;11.02;;;6.07;;
73672;SDS011;61972;19.480;-99.240;2024-01-30T07:03:25;13.07;;;6.35;;
73672;SDS011;61972;19.480;-99.240;2024-01-30T07:05:51;11.20;;;5.80;;
73672;SDS011;61972;19.480;-99.240;2024-01-30T07:08:17;12.27;;;5.70;;
73672;SDS011;61972;19.480;-99.240;2024-01-30T07:10:47;15.05;;;6.07;;
73672;SDS011;61972;19.480;-99.240;2024-01-30T07:13:13;13.13;;;5.72;;
73672;SDS011;61972;19.480;-99.240;2024-01-30T07:15:41;14.00;;;6.07;;
73672;SDS011;61972;19.480;-99.240;2024-01-30T07:18:08;10.20;;;5.63;;
73672;SDS011;61972;19.480;-99.240;2024-01-30T07:20:38;10.03;;;5.33;;
73672;SDS011;61972;19.480;-99.240;2024-01-30T07:23:07;11.82;;;5.45;;
73672;SDS011;61972;19.480;-99.240;2024-01-30T07:25:36;11.18;;;5.85;;
73672;SDS011;61972;19.480;-99.240;2024-01-30T07:28:02;11.10;;;6.20;;
73672;SDS011;61972;19.480;-99.240;2024-01-30T07:30:29;9.30;;;5.72;;
73672;SDS011;61972;19.480;-99.240;2024-01-30T07:32:55;13.23;;;5.50;;
73672;SDS011;61972;19.480;-99.240;2024-01-30T07:35:21;12.90;;;5.60;;
73672;SDS011;61972;19.480;-99.240;2024-01-30T07:37:47;9.80;;;5.32;;
73672;SDS011;61972;19.480;-99.240;2024-01-30T07:40:13;10.27;;;5.55;;
73672;SDS011;61972;19.480;-99.240;2024-01-30T07:42:42;10.40;;;5.90;;
73672;SDS011;61972;19.480;-99.240;2024-01-30T07:45:09;11.63;;;5.50;;
73672;SDS011;61972;19.480;-99.240;2024-01-30T07:47:35;8.15;;;4.85;;
73672;SDS011;61972;19.480;-99.240;2024-01-30T07:50:01;11.05;;;5.00;;
73672;SDS011;61972;19.480;-99.240;2024-01-30T07:52:27;10.25;;;5.40;;
73672;SDS011;61972;19.480;-99.240;2024-01-30T07:54:53;8.77;;;5.40;;
73672;SDS011;61972;19.480;-99.240;2024-01-30T07:57:20;8.83;;;5.17;;
73672;SDS011;61972;19.480;-99.240;2024-01-30T07:59:46;8.73;;;4.57;;
73672;SDS011;61972;19.480;-99.240;2024-01-30T08:02:13;9.07;;;5.30;;
73672;SDS011;61972;19.480;-99.240;2024-01-30T08:04:39;10.98;;;5.15;;
73672;SDS011;61972;19.480;-99.240;2024-01-30T08:07:05;7.55;;;4.63;;
73672;SDS011;61972;19.480;-99.240;2024-01-30T08:09:31;10.10;;;5.30;;
73672;SDS011;61972;19.480;-99.240;2024-01-30T08:11:58;8.35;;;4.80;;
73672;SDS011;61972;19.480;-99.240;2024-01-30T08:14:24;9.32;;;5.03;;
73672;SDS011;61972;19.480;-99.240;2024-01-30T08:16:51;11.00;;;5.18;;
73672;SDS011;61972;19.480;-99.240;2024-01-30T08:19:17;8.30;;;4.75;;
73672;SDS011;61972;19.480;-99.240;2024-01-30T08:21:44;8.93;;;4.97;;
73672;SDS011;61972;19.480;-99.240;2024-01-30T08:24:10;9.32;;;4.82;;
73672;SDS011;61972;19.480;-99.240;2024-01-30T08:26:36;7.80;;;4.72;;
73672;SDS011;61972;19.480;-99.240;2024-01-30T08:29:03;8.30;;;5.03;;
73672;SDS011;61972;19.480;-99.240;2024-01-30T08:31:29;9.05;;;5.00;;
73672;SDS011;61972;19.480;-99.240;2024-01-30T08:33:55;7.03;;;4.50;;
73672;SDS011;61972;19.480;-99.240;2024-01-30T08:36:21;7.32;;;4.68;;
73672;SDS011;61972;19.480;-99.240;2024-01-30T08:38:47;8.85;;;4.72;;
73672;SDS011;61972;19.480;-99.240;2024-01-30T08:41:13;7.28;;;4.50;;
73672;SDS011;61972;19.480;-99.240;2024-01-30T08:43:39;7.40;;;4.80;;
73672;SDS011;61972;19.480;-99.240;2024-01-30T08:46:06;6.13;;;4.40;;
73672;SDS011;61972;19.480;-99.240;2024-01-30T08:48:32;6.75;;;4.50;;
73672;SDS011;61972;19.480;-99.240;2024-01-30T08:50:58;7.95;;;4.80;;
73672;SDS011;61972;19.480;-99.240;2024-01-30T08:53:24;6.40;;;4.20;;
73672;SDS011;61972;19.480;-99.240;2024-01-30T08:55:50;7.85;;;4.57;;
73672;SDS011;61972;19.480;-99.240;2024-01-30T08:58:16;6.20;;;4.30;;
73672;SDS011;61972;19.480;-99.240;2024-01-30T09:00:44;7.35;;;4.78;;
73672;SDS011;61972;19.480;-99.240;2024-01-30T09:03:10;8.77;;;4.10;;
73672;SDS011;61972;19.480;-99.240;2024-01-30T09:05:36;6.70;;;4.20;;
73672;SDS011;61972;19.480;-99.240;2024-01-30T09:08:02;8.32;;;4.32;;
73672;SDS011;61972;19.480;-99.240;2024-01-30T09:10:29;7.07;;;4.53;;
73672;SDS011;61972;19.480;-99.240;2024-01-30T09:12:55;7.68;;;3.95;;
73672;SDS011;61972;19.480;-99.240;2024-01-30T09:15:21;6.78;;;4.18;;
73672;SDS011;61972;19.480;-99.240;2024-01-30T09:17:47;13.25;;;4.50;;
73672;SDS011;61972;19.480;-99.240;2024-01-30T09:20:13;7.13;;;4.43;;
73672;SDS011;61972;19.480;-99.240;2024-01-30T09:22:40;8.77;;;4.10;;
73672;SDS011;61972;19.480;-99.240;2024-01-30T09:25:06;6.30;;;3.92;;
73672;SDS011;61972;19.480;-99.240;2024-01-30T09:27:32;8.45;;;4.60;;
73672;SDS011;61972;19.480;-99.240;2024-01-30T09:29:58;6.90;;;3.92;;
73672;SDS011;61972;19.480;-99.240;2024-01-30T09:32:24;6.43;;;4.20;;
73672;SDS011;61972;19.480;-99.240;2024-01-30T09:34:50;5.80;;;3.83;;
73672;SDS011;61972;19.480;-99.240;2024-01-30T09:37:16;6.13;;;4.07;;
73672;SDS011;61972;19.480;-99.240;2024-01-30T09:39:43;7.30;;;4.13;;
73672;SDS011;61972;19.480;-99.240;2024-01-30T09:42:51;7.85;;;3.92;;
73672;SDS011;61972;19.480;-99.240;2024-01-30T09:45:02;7.95;;;4.20;;
73672;SDS011;61972;19.480;-99.240;2024-01-30T09:47:40;7.57;;;4.00;;
73672;SDS011;61972;19.480;-99.240;2024-01-30T09:50:11;5.82;;;3.80;;
73672;SDS011;61972;19.480;-99.240;2024-01-30T09:52:39;5.85;;;3.85;;
73672;SDS011;61972;19.480;-99.240;2024-01-30T09:55:06;5.95;;;3.80;;
73672;SDS011;61972;19.480;-99.240;2024-01-30T09:57:33;6.50;;;3.72;;
73672;SDS011;61972;19.480;-99.240;2024-01-30T10:00:00;5.83;;;3.70;;
73672;SDS011;61972;19.480;-99.240;2024-01-30T10:02:27;5.63;;;3.70;;
73672;SDS011;61972;19.480;-99.240;2024-01-30T10:04:54;5.57;;;3.50;;
73672;SDS011;61972;19.480;-99.240;2024-01-30T10:07:20;6.95;;;3.95;;
73672;SDS011;61972;19.480;-99.240;2024-01-30T10:09:46;6.72;;;3.78;;
73672;SDS011;61972;19.480;-99.240;2024-01-30T10:12:14;7.00;;;4.07;;
73672;SDS011;61972;19.480;-99.240;2024-01-30T10:14:42;6.30;;;3.63;;
73672;SDS011;61972;19.480;-99.240;2024-01-30T10:17:09;7.05;;;3.70;;
73672;SDS011;61972;19.480;-99.240;2024-01-30T10:19:36;5.40;;;3.47;;
73672;SDS011;61972;19.480;-99.240;2024-01-30T10:22:11;6.10;;;3.63;;
73672;SDS011;61972;19.480;-99.240;2024-01-30T10:24:37;5.73;;;3.70;;
73672;SDS011;61972;19.480;-99.240;2024-01-30T10:27:05;6.82;;;4.20;;
73672;SDS011;61972;19.480;-99.240;2024-01-30T10:29:32;5.93;;;3.58;;
73672;SDS011;61972;19.480;-99.240;2024-01-30T10:31:58;5.38;;;3.63;;
73672;SDS011;61972;19.480;-99.240;2024-01-30T10:34:25;5.78;;;3.70;;
73672;SDS011;61972;19.480;-99.240;2024-01-30T10:36:53;7.03;;;3.37;;
73672;SDS011;61972;19.480;-99.240;2024-01-30T10:39:25;6.00;;;3.55;;
73672;SDS011;61972;19.480;-99.240;2024-01-30T10:41:58;5.13;;;3.65;;
73672;SDS011;61972;19.480;-99.240;2024-01-30T10:44:30;7.28;;;3.40;;
73672;SDS011;61972;19.480;-99.240;2024-01-30T10:47:06;7.40;;;3.50;;
73672;SDS011;61972;19.480;-99.240;2024-01-30T10:49:38;5.63;;;3.20;;
73672;SDS011;61972;19.480;-99.240;2024-01-30T10:52:07;5.65;;;3.30;;
73672;SDS011;61972;19.480;-99.240;2024-01-30T10:54:35;6.85;;;3.70;;
73672;SDS011;61972;19.480;-99.240;2024-01-30T10:57:03;6.22;;;3.75;;
73672;SDS011;61972;19.480;-99.240;2024-01-30T10:59:30;5.95;;;3.50;;
73672;SDS011;61972;19.480;-99.240;2024-01-30T11:01:57;5.40;;;3.30;;
73672;SDS011;61972;19.480;-99.240;2024-01-30T11:04:25;5.03;;;3.40;;
73672;SDS011;61972;19.480;-99.240;2024-01-30T11:06:51;6.22;;;3.35;;
73672;SDS011;61972;19.480;-99.240;2024-01-30T11:09:17;5.65;;;3.38;;
73672;SDS011;61972;19.480;-99.240;2024-01-30T11:11:51;5.07;;;3.28;;
73672;SDS011;61972;19.480;-99.240;2024-01-30T11:14:25;5.73;;;3.50;;
73672;SDS011;61972;19.480;-99.240;2024-01-30T11:16:52;5.70;;;3.40;;
73672;SDS011;61972;19.480;-99.240;2024-01-30T11:19:27;4.72;;;3.10;;
73672;SDS011;61972;19.480;-99.240;2024-01-30T11:21:56;5.55;;;3.30;;
73672;SDS011;61972;19.480;-99.240;2024-01-30T11:24:23;4.90;;;3.10;;
73672;SDS011;61972;19.480;-99.240;2024-01-30T11:26:54;5.30;;;3.10;;
73672;SDS011;61972;19.480;-99.240;2024-01-30T11:29:29;5.20;;;3.40;;
73672;SDS011;61972;19.480;-99.240;2024-01-30T11:31:56;5.65;;;2.90;;
73672;SDS011;61972;19.480;-99.240;2024-01-30T11:34:23;4.75;;;3.20;;
73672;SDS011;61972;19.480;-99.240;2024-01-30T11:36:56;4.80;;;3.00;;
73672;SDS011;61972;19.480;-99.240;2024-01-30T11:39:30;4.97;;;3.10;;
73672;SDS011;61972;19.480;-99.240;2024-01-30T11:41:57;4.88;;;3.30;;
73672;SDS011;61972;19.480;-99.240;2024-01-30T11:44:25;4.60;;;2.60;;
73672;SDS011;61972;19.480;-99.240;2024-01-30T11:46:51;4.57;;;2.95;;
73672;SDS011;61972;19.480;-99.240;2024-01-30T11:49:18;4.38;;;2.70;;
73672;SDS011;61972;19.480;-99.240;2024-01-30T11:51:48;4.40;;;3.00;;
73672;SDS011;61972;19.480;-99.240;2024-01-30T11:54:14;4.07;;;2.88;;
73672;SDS011;61972;19.480;-99.240;2024-01-30T11:56:43;4.40;;;2.58;;
73672;SDS011;61972;19.480;-99.240;2024-01-30T11:59:09;3.97;;;2.80;;
73672;SDS011;61972;19.480;-99.240;2024-01-30T12:01:37;4.70;;;3.20;;
73672;SDS011;61972;19.480;-99.240;2024-01-30T12:04:03;4.37;;;3.03;;
73672;SDS011;61972;19.480;-99.240;2024-01-30T12:06:34;5.10;;;2.97;;
73672;SDS011;61972;19.480;-99.240;2024-01-30T12:09:01;4.20;;;2.90;;
73672;SDS011;61972;19.480;-99.240;2024-01-30T12:11:33;4.70;;;3.25;;
73672;SDS011;61972;19.480;-99.240;2024-01-30T12:14:08;5.57;;;3.20;;
73672;SDS011;61972;19.480;-99.240;2024-01-30T12:16:35;4.73;;;3.30;;
73672;SDS011;61972;19.480;-99.240;2024-01-30T12:19:02;4.45;;;2.80;;
73672;SDS011;61972;19.480;-99.240;2024-01-30T12:21:28;4.32;;;2.58;;
73672;SDS011;61972;19.480;-99.240;2024-01-30T12:23:56;6.28;;;2.65;;
73672;SDS011;61972;19.480;-99.240;2024-01-30T12:26:23;4.78;;;3.00;;
73672;SDS011;61972;19.480;-99.240;2024-01-30T12:28:53;3.97;;;2.70;;
73672;SDS011;61972;19.480;-99.240;2024-01-30T12:31:27;5.00;;;3.00;;
73672;SDS011;61972;19.480;-99.240;2024-01-30T12:33:54;3.65;;;2.55;;
73672;SDS011;61972;19.480;-99.240;2024-01-30T12:36:21;3.80;;;2.63;;
73672;SDS011;61972;19.480;-99.240;2024-01-30T12:38:47;3.78;;;2.70;;
73672;SDS011;61972;19.480;-99.240;2024-01-30T12:41:14;4.23;;;2.60;;
73672;SDS011;61972;19.480;-99.240;2024-01-30T12:43:40;3.90;;;2.47;;
73672;SDS011;61972;19.480;-99.240;2024-01-30T12:46:07;4.28;;;2.50;;
73672;SDS011;61972;19.480;-99.240;2024-01-30T12:48:33;4.03;;;2.40;;
73672;SDS011;61972;19.480;-99.240;2024-01-30T12:51:00;4.35;;;2.78;;
73672;SDS011;61972;19.480;-99.240;2024-01-30T12:53:26;4.20;;;2.40;;
73672;SDS011;61972;19.480;-99.240;2024-01-30T12:55:52;3.88;;;2.45;;
73672;SDS011;61972;19.480;-99.240;2024-01-30T12:58:19;4.90;;;2.60;;
73672;SDS011;61972;19.480;-99.240;2024-01-30T13:00:46;4.22;;;2.72;;
73672;SDS011;61972;19.480;-99.240;2024-01-30T13:03:12;3.45;;;2.40;;
73672;SDS011;61972;19.480;-99.240;2024-01-30T13:05:39;4.13;;;2.57;;
73672;SDS011;61972;19.480;-99.240;2024-01-30T13:08:05;3.90;;;2.50;;
73672;SDS011;61972;19.480;-99.240;2024-01-30T13:10:31;4.32;;;2.50;;
73672;SDS011;61972;19.480;-99.240;2024-01-30T13:12:57;4.18;;;2.60;;
73672;SDS011;61972;19.480;-99.240;2024-01-30T13:15:23;4.85;;;2.33;;
73672;SDS011;61972;19.480;-99.240;2024-01-30T13:17:49;3.90;;;2.50;;
73672;SDS011;61972;19.480;-99.240;2024-01-30T13:20:16;6.70;;;2.30;;
73672;SDS011;61972;19.480;-99.240;2024-01-30T13:22:44;5.00;;;2.47;;
73672;SDS011;61972;19.480;-99.240;2024-01-30T13:25:13;3.80;;;2.55;;
73672;SDS011;61972;19.480;-99.240;2024-01-30T13:27:39;5.68;;;2.35;;
73672;SDS011;61972;19.480;-99.240;2024-01-30T13:30:06;3.90;;;2.40;;
73672;SDS011;61972;19.480;-99.240;2024-01-30T13:32:36;4.03;;;2.30;;
73672;SDS011;61972;19.480;-99.240;2024-01-30T13:35:02;4.78;;;2.58;;
73672;SDS011;61972;19.480;-99.240;2024-01-30T13:37:29;3.33;;;2.03;;
73672;SDS011;61972;19.480;-99.240;2024-01-30T13:39:55;3.92;;;2.58;;
73672;SDS011;61972;19.480;-99.240;2024-01-30T13:42:22;3.20;;;2.20;;
73672;SDS011;61972;19.480;-99.240;2024-01-30T13:44:48;6.28;;;2.40;;
73672;SDS011;61972;19.480;-99.240;2024-01-30T13:47:15;4.00;;;2.90;;
73672;SDS011;61972;19.480;-99.240;2024-01-30T13:49:41;3.63;;;2.30;;
73672;SDS011;61972;19.480;-99.240;2024-01-30T13:52:07;4.45;;;2.10;;
73672;SDS011;61972;19.480;-99.240;2024-01-30T13:54:33;4.23;;;2.40;;
73672;SDS011;61972;19.480;-99.240;2024-01-30T13:57:02;4.15;;;2.25;;
73672;SDS011;61972;19.480;-99.240;2024-01-30T13:59:29;3.40;;;2.20;;
73672;SDS011;61972;19.480;-99.240;2024-01-30T14:01:55;3.50;;;2.00;;
73672;SDS011;61972;19.480;-99.240;2024-01-30T14:04:21;4.70;;;2.20;;
73672;SDS011;61972;19.480;-99.240;2024-01-30T14:06:47;3.50;;;2.10;;
73672;SDS011;61972;19.480;-99.240;2024-01-30T14:09:13;3.22;;;2.00;;
73672;SDS011;61972;19.480;-99.240;2024-01-30T14:11:43;3.13;;;2.00;;
73672;SDS011;61972;19.480;-99.240;2024-01-30T14:14:10;3.03;;;2.03;;